Time;durP1;ratioP1;P1;durP2;ratioP2;P2;SDS_P1;SDS_P2;PMS_P1;PMS_P2;Temp;Humidity;BMP_temperature;BMP_pressure;BME280_temperature;BME280_humidity;BME280_pressure;Samples;Min_cycle;Max_cycle;Signal;HPM_P1;HPM_P2
2023/10/13 00:02:02;;;;;;;15.20;7.35;;;;;;;7.68;84.46;100306.56;1819609;78;25418;-69
2023/10/13 00:04:35;;;;;;;12.45;6.90;;;;;;;7.64;84.87;100316.29;1819652;78;25521;-69
2023/10/13 00:07:04;;;;;;;15.30;7.80;;;;;;;7.61;84.92;100317.69;1819685;78;25465;-69
2023/10/13 00:09:32;;;;;;;15.53;7.40;;;;;;;7.59;85.10;100320.39;1819698;78;25643;-68
2023/10/13 00:12:03;;;;;;;16.25;8.28;;;;;;;7.57;85.57;100330.09;1819655;78;27959;-68
2023/10/13 00:14:34;;;;;;;17.42;9.23;;;;;;;7.57;85.79;100332.00;1819633;78;25362;-69
2023/10/13 00:17:05;;;;;;;12.05;6.67;;;;;;;7.54;85.94;100330.67;1819701;78;25372;-70
2023/10/13 00:19:37;;;;;;;13.18;9.00;;;;;;;7.53;85.60;100325.05;1819666;78;25605;-70
2023/10/13 00:22:10;;;;;;;16.85;7.58;;;;;;;7.52;85.92;100330.72;1817779;78;25387;-69
2023/10/13 00:24:51;;;;;;;17.85;6.78;;;;;;;7.50;85.79;100328.30;1817627;79;27336;-70
2023/10/13 00:27:36;;;;;;;13.45;6.85;;;;;;;7.46;85.62;100325.39;1817022;79;25536;-70
2023/10/13 00:30:22;;;;;;;11.53;6.47;;;;;;;7.43;85.48;100331.89;1817876;79;25525;-69
2023/10/13 00:32:56;;;;;;;13.83;7.08;;;;;;;7.38;85.37;100332.74;1817750;78;25971;-69
2023/10/13 00:35:36;;;;;;;15.78;8.20;;;;;;;7.33;85.14;100336.05;1817759;79;25628;-68
2023/10/13 00:38:19;;;;;;;18.82;8.75;;;;;;;7.28;85.06;100338.23;1817682;79;28263;-69
2023/10/13 00:40:51;;;;;;;;;;;;;;;7.26;85.35;100340.42;1818428;79;25797;-69
2023/10/13 00:46:06;;;;;;;12.47;6.47;;;;;;;7.22;86.37;100343.41;1817629;78;25718;-69
2023/10/13 00:48:42;;;;;;;12.82;6.90;;;;;;;7.20;85.98;100343.71;1816158;79;25576;-69
2023/10/13 00:51:07;;;;;;;13.48;6.65;;;;;;;7.17;85.62;100354.22;1816958;79;28384;-69
2023/10/13 00:53:40;;;;;;;16.75;8.28;;;;;;;7.10;85.17;100355.37;1817568;78;25585;-69
2023/10/13 00:56:23;;;;;;;11.30;6.58;;;;;;;7.07;85.49;100346.52;1817651;79;25516;-69
2023/10/13 00:58:52;;;;;;;13.90;6.85;;;;;;;7.03;84.99;100348.70;1817581;78;25568;-69
2023/10/13 01:01:17;;;;;;;15.43;6.70;;;;;;;6.99;84.75;100350.37;1817394;79;25538;-68
2023/10/13 01:03:59;;;;;;;15.05;6.97;;;;;;;6.95;85.06;100354.17;1817631;79;27321;-68
2023/10/13 01:06:27;;;;;;;16.95;9.80;;;;;;;6.91;84.95;100352.59;1817552;79;25593;-68
2023/10/13 01:09:16;;;;;;;13.50;8.15;;;;;;;6.89;85.64;100357.42;1817763;79;35094;-68
2023/10/13 01:11:52;;;;;;;14.50;7.97;;;;;;;6.89;86.11;100345.87;1817833;79;25994;-68
2023/10/13 01:14:21;;;;;;;16.62;11.08;;;;;;;6.86;85.75;100347.78;1817687;79;25435;-68
2023/10/13 01:16:52;;;;;;;21.50;9.13;;;;;;;6.83;85.76;100351.85;1817771;79;27329;-68
2023/10/13 01:19:28;;;;;;;15.65;8.85;;;;;;;6.83;86.07;100357.78;1817562;79;25596;-68
2023/10/13 01:22:01;;;;;;;20.30;9.13;;;;;;;6.82;86.22;100359.64;1816403;78;25403;-68
2023/10/13 01:24:24;;;;;;;16.25;7.33;;;;;;;6.80;85.79;100365.06;1817268;78;26104;-68
2023/10/13 01:26:52;;;;;;;13.25;6.90;;;;;;;6.77;85.63;100362.37;1817702;78;25534;-67
2023/10/13 01:29:26;;;;;;;;;;;;;;;6.73;85.42;100372.89;1820429;79;27337;-67
2023/10/13 01:31:48;;;;;;;12.65;7.00;;;;;;;6.69;85.31;100371.86;1817459;78;25805;-67
2023/10/13 01:34:21;;;;;;;12.53;7.47;;;;;;;6.65;85.10;100361.94;1817607;79;25563;-68
2023/10/13 01:36:55;;;;;;;15.83;7.92;;;;;;;6.60;84.87;100366.02;1817632;79;25819;-69
2023/10/13 01:39:26;;;;;;;13.40;8.38;;;;;;;6.58;85.13;100370.88;1817677;79;25226;-69
2023/10/13 01:41:55;;;;;;;18.55;9.15;;;;;;;6.54;85.14;100372.77;1817658;79;27336;-67
2023/10/13 01:44:30;;;;;;;18.98;8.88;;;;;;;6.54;85.69;100371.98;1817675;79;25677;-68
2023/10/13 01:47:06;;;;;;;14.58;9.28;;;;;;;6.52;85.62;100366.05;1817629;79;25600;-69
2023/10/13 01:49:42;;;;;;;18.00;9.20;;;;;;;6.50;85.73;100369.05;1817629;79;25464;-69
2023/10/13 01:52:15;;;;;;;14.07;8.38;;;;;;;6.48;85.65;100365.02;1817731;78;25606;-69
2023/10/13 01:54:40;;;;;;;13.38;7.55;;;;;;;6.45;85.47;100362.37;1817606;78;27244;-68
2023/10/13 01:57:08;;;;;;;14.68;7.90;;;;;;;6.43;85.30;100362.37;1817505;79;25443;-68
2023/10/13 01:59:43;;;;;;;18.10;9.40;;;;;;;6.39;85.21;100355.96;1817620;79;25529;-68
2023/10/13 02:02:05;;;;;;;16.93;8.15;;;;;;;6.35;85.17;100359.20;1817341;78;25427;-67
2023/10/13 02:04:33;;;;;;;13.68;7.58;;;;;;;6.33;85.24;100349.28;1787952;79;25582;-69
2023/10/13 02:07:02;;;;;;;14.68;8.68;;;;;;;6.31;85.22;100358.13;1817579;79;27328;-69
2023/10/13 02:09:29;;;;;;;12.73;7.83;;;;;;;6.29;85.24;100358.16;1817492;78;25451;-69
2023/10/13 02:11:59;;;;;;;15.98;8.38;;;;;;;6.26;85.15;100347.97;1817555;79;25501;-69
2023/10/13 02:14:25;;;;;;;17.30;9.05;;;;;;;6.23;85.07;100356.06;1817532;78;25859;-69
2023/10/13 02:17:11;;;;;;;13.60;8.60;;;;;;;6.20;85.05;100347.73;1817705;79;25383;-69
2023/10/13 02:19:27;;;;;;;13.75;8.50;;;;;;;6.18;85.10;100349.37;1817209;78;27381;-69
2023/10/13 02:21:58;;;;;;;14.55;8.78;;;;;;;6.16;85.02;100359.05;1817428;77;25521;-69
2023/10/13 02:24:29;;;;;;;17.37;8.88;;;;;;;6.13;84.84;100352.06;1817550;79;25383;-70
2023/10/13 02:26:51;;;;;;;15.03;8.20;;;;;;;6.10;84.80;100352.64;1817507;78;25554;-69
2023/10/13 02:29:19;;;;;;;14.58;8.23;;;;;;;6.08;84.85;100362.84;1817764;79;25644;-69
2023/10/13 02:31:54;;;;;;;17.55;8.68;;;;;;;6.05;84.55;100362.06;1817687;79;27318;-70
2023/10/13 02:34:18;;;;;;;14.95;8.60;;;;;;;6.01;84.66;100365.02;1817391;78;25698;-69
2023/10/13 02:36:49;;;;;;;15.93;8.95;;;;;;;5.99;84.74;100374.70;1817835;78;25423;-69
2023/10/13 02:39:28;;;;;;;16.57;8.48;;;;;;;5.96;84.67;100371.25;1817761;79;25609;-69
2023/10/13 02:41:56;;;;;;;15.85;8.58;;;;;;;5.94;84.49;100370.66;1816742;79;25664;-67
2023/10/13 02:44:31;;;;;;;16.45;8.78;;;;;;;5.89;84.48;100366.14;1817762;79;28038;-68
2023/10/13 02:46:58;;;;;;;18.67;8.48;;;;;;;5.87;84.60;100364.25;1817676;78;25697;-68
2023/10/13 02:49:34;;;;;;;14.30;8.63;;;;;;;5.84;84.60;100369.37;1818292;79;25620;-68
2023/10/13 02:52:08;;;;;;;16.42;9.18;;;;;;;5.82;84.77;100366.16;1818671;78;25372;-70
2023/10/13 02:54:37;;;;;;;16.05;8.93;;;;;;;5.80;84.79;100370.45;1818758;78;25618;-68
2023/10/13 02:57:03;;;;;;;13.30;8.65;;;;;;;5.79;84.68;100367.53;1818830;79;27905;-70
2023/10/13 02:59:46;;;;;;;14.95;7.92;;;;;;;5.78;84.84;100364.56;1817894;79;25602;-69
2023/10/13 03:02:18;;;;;;;23.75;8.85;;;;;;;5.76;84.66;100362.70;1816708;79;25640;-68
2023/10/13 03:04:39;;;;;;;14.80;8.50;;;;;;;5.73;84.51;100363.25;1814994;79;25376;-68
2023/10/13 03:07:07;;;;;;;15.05;8.00;;;;;;;5.72;84.39;100371.02;1817886;79;25371;-68
2023/10/13 03:09:37;;;;;;;23.73;10.05;;;;;;;5.70;84.39;100367.81;1817741;79;28274;-68
2023/10/13 03:12:04;;;;;;;18.95;8.45;;;;;;;5.67;84.44;100359.79;1817546;79;25434;-69
2023/10/13 03:14:35;;;;;;;21.70;8.98;;;;;;;5.65;84.36;100359.23;1817694;78;25446;-68
2023/10/13 03:17:08;;;;;;;22.17;9.53;;;;;;;5.62;84.17;100362.49;1817673;79;26227;-68
2023/10/13 03:19:39;;;;;;;20.77;11.22;;;;;;;5.59;84.07;100365.72;1817580;78;25369;-69
2023/10/13 03:22:15;;;;;;;21.12;9.60;;;;;;;5.57;84.21;100347.75;1818653;78;27405;-69
2023/10/13 03:24:47;;;;;;;19.65;10.98;;;;;;;5.55;84.34;100349.88;1819437;78;26000;-68
2023/10/13 03:27:24;;;;;;;20.77;10.90;;;;;;;5.52;84.42;100352.59;1819706;78;25614;-68
2023/10/13 03:30:00;;;;;;;21.20;11.65;;;;;;;5.50;84.57;100357.44;1819787;78;25578;-68
2023/10/13 03:32:26;;;;;;;23.05;11.70;;;;;;;5.48;84.36;100357.42;1817708;78;25433;-68
2023/10/13 03:37:39;;;;;;;17.85;10.20;;;;;;;5.45;84.49;100360.13;1819654;78;25384;-69
2023/10/13 03:43:04;;;;;;;20.12;9.88;;;;;;;5.41;84.36;100355.85;1819711;78;25444;-69
2023/10/13 03:45:52;;;;;;;18.55;9.40;;;;;;;5.39;84.43;100355.84;1819731;78;25537;-68
2023/10/13 03:51:03;;;;;;;19.20;11.18;;;;;;;5.38;85.27;100356.91;1819612;78;25589;-68
2023/10/13 03:53:35;;;;;;;18.75;10.58;;;;;;;5.41;85.65;100363.07;1819718;78;25545;-68
2023/10/13 03:56:12;;;;;;;20.08;11.57;;;;;;;5.44;85.96;100359.85;1819645;78;25595;-68
2023/10/13 03:58:46;;;;;;;19.42;10.53;;;;;;;5.47;85.81;100355.29;1819711;78;25451;-68
2023/10/13 04:01:12;;;;;;;17.90;9.83;;;;;;;5.49;85.71;100358.50;1818934;78;28021;-68
2023/10/13 04:03:42;;;;;;;17.05;9.95;;;;;;;5.49;85.22;100365.75;1819614;78;25672;-68
2023/10/13 04:06:16;;;;;;;19.15;10.82;;;;;;;5.46;84.95;100368.97;1819667;78;25578;-68
2023/10/13 04:08:47;;;;;;;18.25;10.43;;;;;;;5.44;84.93;100367.90;1819326;78;25777;-67
2023/10/13 04:16:54;;;;;;;19.52;10.50;;;;;;;5.39;85.00;100360.66;1819618;78;25553;-68
2023/10/13 04:19:25;;;;;;;18.12;10.58;;;;;;;5.37;84.94;100367.39;1819699;78;25430;-67
2023/10/13 04:21:59;;;;;;;22.95;10.88;;;;;;;5.34;85.11;100364.70;1819521;78;25912;-68
2023/10/13 04:24:59;;;;;;;18.77;11.22;;;;;;;5.34;85.09;100366.58;1819710;78;25441;-69
2023/10/13 04:29:51;;;;;;;20.95;11.57;;;;;;;5.28;84.83;100367.66;1819609;78;25586;-69
2023/10/13 04:32:28;;;;;;;18.12;10.50;;;;;;;5.23;84.57;100363.13;1819412;78;25586;-69
2023/10/13 04:34:45;;;;;;;19.27;10.72;;;;;;;5.17;84.61;100365.00;1818698;78;25856;-68
2023/10/13 04:37:49;;;;;;;20.45;11.53;;;;;;;5.16;85.03;100358.56;1819623;78;25479;-68
2023/10/13 04:40:11;;;;;;;18.52;10.35;;;;;;;5.14;85.35;100360.72;1816859;78;27912;-69
2023/10/13 04:42:49;;;;;;;22.62;11.93;;;;;;;5.14;85.32;100368.77;1819708;78;25536;-69
2023/10/13 04:47:57;;;;;;;18.20;11.28;;;;;;;5.11;85.19;100362.08;1754401;81;26038;-71
2023/10/13 04:50:27;;;;;;;17.92;10.35;;;;;;;5.11;85.30;100366.61;1754370;81;25623;-69
2023/10/13 04:53:01;;;;;;;17.85;9.88;;;;;;;5.09;85.25;100370.94;1754329;81;27330;-67
2023/10/13 04:58:11;;;;;;;18.07;10.45;;;;;;;5.10;85.51;100383.25;1754417;81;25684;-68
2023/10/13 05:44:32;;;;;;;19.35;10.98;;;;;;;5.12;85.77;100385.12;1754409;81;27974;-68
2023/10/13 05:44:33;;;;;;;22.87;11.88;;;;;;;5.45;87.06;100415.12;1819798;78;25433;-67
2023/10/13 05:49:53;;;;;;;22.45;11.48;;;;;;;5.52;87.40;100426.38;1819566;78;25802;-67
2023/10/13 06:28:41;;;;;;;26.73;16.07;;;;;;;6.65;91.75;100454.13;1700827;84;27331;-68
2023/10/13 06:31:22;;;;;;;28.12;16.17;;;;;;;6.79;91.29;100460.23;1700839;84;25606;-67
2023/10/13 06:33:52;;;;;;;29.72;17.27;;;;;;;6.92;91.87;100461.73;1700964;84;25537;-67
2023/10/13 06:36:20;;;;;;;27.17;16.57;;;;;;;7.16;93.42;100465.06;1700909;82;25498;-67
2023/10/13 06:38:56;;;;;;;29.80;18.75;;;;;;;7.46;95.34;100468.59;1701003;84;25690;-67
2023/10/13 06:41:32;;;;;;;33.65;18.77;;;;;;;7.66;94.84;100463.00;1701035;84;27339;-67
2023/10/13 06:43:59;;;;;;;32.10;18.27;;;;;;;7.80;93.17;100465.02;1700904;84;25922;-67
2023/10/13 06:46:28;;;;;;;29.65;18.90;;;;;;;7.92;93.45;100465.97;1700963;84;25699;-66
2023/10/13 06:48:59;;;;;;;25.82;16.50;;;;;;;8.09;93.71;100463.61;1700951;84;25775;-67
2023/10/13 06:51:30;;;;;;;;;;;;;;;8.24;93.06;100462.62;1703502;84;25690;-67
2023/10/13 06:53:56;;;;;;;27.22;16.82;;;;;;;8.42;94.04;100463.73;1719151;81;27693;-67
2023/10/13 06:56:28;;;;;;;28.25;16.80;;;;;;;8.59;94.92;100453.82;1764689;81;25689;-67
2023/10/13 06:58:59;;;;;;;38.28;21.05;;;;;;;8.85;95.35;100453.45;1764669;81;25397;-67
2023/10/13 07:01:29;;;;;;;32.85;20.08;;;;;;;9.03;94.86;100464.77;1764666;81;25908;-67
2023/10/13 07:04:01;;;;;;;34.03;19.80;;;;;;;9.30;96.38;100457.30;1764631;81;25449;-68
2023/10/13 07:06:25;;;;;;;39.45;22.00;;;;;;;9.83;100.00;100458.00;1733070;81;27440;-67
2023/10/13 07:08:53;;;;;;;33.63;19.52;;;;;;;10.37;100.00;100456.39;1764554;81;25969;-67
2023/10/13 07:11:42;;;;;;;25.25;18.17;;;;;;;10.79;99.44;100454.35;1764604;81;25396;-68
2023/10/13 07:14:16;;;;;;;33.10;19.98;;;;;;;11.22;99.68;100458.50;1763340;81;25922;-67
2023/10/13 07:17:04;;;;;;;29.05;17.95;;;;;;;11.63;98.57;100462.87;1764458;81;25678;-67
2023/10/13 07:19:33;;;;;;;21.68;14.68;;;;;;;12.03;95.17;100464.80;1764691;81;27441;-67
2023/10/13 07:22:20;;;;;;;25.65;15.48;;;;;;;12.24;91.73;100466.36;1764679;81;25453;-67
2023/10/13 07:24:52;;;;;;;23.03;14.97;;;;;;;12.31;90.08;100468.86;1732997;82;25447;-66
2023/10/13 07:27:23;;;;;;;25.25;14.45;;;;;;;12.37;88.46;100461.93;1732758;82;25510;-67
2023/10/13 07:30:13;;;;;;;24.55;14.78;;;;;;;12.31;86.54;100463.44;1732752;82;25408;-68
2023/10/13 07:32:36;;;;;;;21.42;14.55;;;;;;;12.25;86.94;100453.84;1732363;82;28529;-68
2023/10/13 07:35:12;;;;;;;21.00;14.35;;;;;;;12.25;86.67;100448.42;1732606;82;25622;-68
2023/10/13 07:37:41;;;;;;;26.57;13.98;;;;;;;12.27;86.70;100450.25;1732542;82;25420;-68
2023/10/13 07:40:39;;;;;;;21.42;13.75;;;;;;;12.24;85.97;100454.98;1732502;82;25905;-68
2023/10/13 07:43:03;;;;;;;23.12;14.53;;;;;;;12.18;85.74;100454.88;1728549;82;25476;-67
2023/10/13 07:45:37;;;;;;;20.05;13.35;;;;;;;12.15;86.06;100464.42;1732968;82;27932;-67
2023/10/13 07:48:20;;;;;;;17.98;13.22;;;;;;;12.11;85.70;100453.19;1703124;82;25520;-67
2023/10/13 07:51:10;;;;;;;20.48;13.18;;;;;;;12.08;85.62;100458.66;1732701;82;25550;-67
2023/10/13 07:53:39;;;;;;;20.32;13.32;;;;;;;12.06;85.82;100460.11;1725142;82;25749;-68
2023/10/13 07:56:07;;;;;;;20.95;13.95;;;;;;;12.01;86.04;100449.41;1732632;82;25481;-69
2023/10/13 07:58:47;;;;;;;19.02;12.65;;;;;;;12.01;86.28;100442.06;1732733;82;28321;-67
2023/10/13 08:01:08;;;;;;;24.77;13.70;;;;;;;12.02;86.69;100448.28;1731933;82;25791;-67
2023/10/13 08:06:29;;;;;;;23.57;12.60;;;;;;;12.04;86.92;100439.30;1732688;82;25560;-69
2023/10/13 08:08:39;;;;;;;22.52;13.00;;;;;;;12.04;86.48;100430.59;1724290;82;25697;-68
2023/10/13 08:11:25;;;;;;;22.80;13.10;;;;;;;12.06;87.00;100437.85;1732873;82;27929;-67
2023/10/13 08:16:53;;;;;;;;;;;;;;;12.15;87.83;100429.17;1735290;82;25394;-67
2023/10/13 08:19:47;;;;;;;21.00;13.18;;;;;;;12.27;88.55;100427.77;1732783;82;25622;-68
2023/10/13 08:27:34;;;;;;;20.05;11.90;;;;;;;12.40;87.94;100423.33;1756403;81;25548;-69
2023/10/13 08:30:26;;;;;;;25.10;11.93;;;;;;;12.45;87.28;100428.03;1756499;81;25430;-68
2023/10/13 08:32:54;;;;;;;17.05;10.53;;;;;;;12.48;87.72;100424.69;1754784;81;25906;-68
2023/10/13 08:35:10;;;;;;;19.20;11.10;;;;;;;12.51;87.12;100425.41;1755337;81;25540;-69
2023/10/13 08:40:42;;;;;;;19.25;10.45;;;;;;;12.54;86.86;100419.89;1756432;81;25603;-68
2023/10/13 09:01:48;;;;;;;18.00;8.03;;;;;;;12.41;87.53;100416.77;1657495;86;25473;-68
2023/10/13 09:04:24;;;;;;;13.90;7.37;;;;;;;12.40;87.42;100413.27;1657421;86;27980;-68
2023/10/13 09:15:17;;;;;;;14.15;6.20;;;;;;;12.49;86.97;100417.34;1657586;86;25624;-67
2023/10/13 09:18:12;;;;;;;13.70;5.83;;;;;;;12.50;86.98;100415.66;1657309;86;27362;-66
2023/10/13 09:20:42;;;;;;;15.38;5.45;;;;;;;12.52;86.60;100412.64;1654527;86;26035;-66
2023/10/13 09:23:23;;;;;;;12.63;5.58;;;;;;;12.54;86.87;100396.83;1656673;85;25476;-66
2023/10/13 09:25:57;;;;;;;13.80;5.47;;;;;;;12.72;86.92;100389.49;1650609;86;26021;-65
2023/10/13 09:28:31;;;;;;;13.13;5.47;;;;;;;12.94;86.94;100398.01;1652418;86;25752;-65
2023/10/13 09:30:58;;;;;;;15.45;5.53;;;;;;;13.27;87.69;100395.52;1652439;86;27351;-65
2023/10/13 09:33:32;;;;;;;18.95;6.47;;;;;;;13.47;86.56;100398.69;1652274;86;26104;-66
2023/10/13 09:36:08;;;;;;;17.05;5.45;;;;;;;13.54;85.73;100400.91;1715139;82;25381;-68
2023/10/13 09:38:40;;;;;;;17.30;6.42;;;;;;;13.57;85.46;100396.16;1747318;82;25563;-67
2023/10/13 09:41:18;;;;;;;19.20;6.45;;;;;;;13.59;84.99;100393.92;1747371;82;25415;-67
2023/10/13 09:43:51;;;;;;;23.92;6.60;;;;;;;13.66;85.49;100387.41;1747445;82;27842;-66
2023/10/13 09:46:23;;;;;;;19.70;6.95;;;;;;;13.81;85.99;100384.13;1747191;81;25629;-67
2023/10/13 09:49:14;;;;;;;17.12;6.95;;;;;;;13.97;85.05;100384.92;1747330;81;25584;-67
2023/10/13 09:51:45;;;;;;;27.52;7.87;;;;;;;13.99;84.09;100378.59;1747162;82;26506;-66
2023/10/13 09:54:33;;;;;;;23.60;8.28;;;;;;;13.99;83.85;100376.66;1747238;82;25439;-66
2023/10/13 09:57:12;;;;;;;21.48;8.48;;;;;;;14.12;84.17;100378.12;1747302;82;27188;-67
2023/10/13 09:59:55;;;;;;;21.33;7.53;;;;;;;14.28;83.81;100372.87;1747260;81;26098;-67
2023/10/13 10:02:27;;;;;;;20.50;7.50;;;;;;;14.45;84.10;100374.09;1747325;82;25612;-67
2023/10/13 10:05:15;;;;;;;23.83;7.78;;;;;;;14.53;83.28;100367.78;1747278;81;25648;-67
2023/10/13 10:07:43;;;;;;;24.57;7.87;;;;;;;14.56;83.19;100362.25;1747182;82;25619;-66
2023/10/13 10:10:12;;;;;;;19.30;8.13;;;;;;;14.70;84.12;100353.25;1747267;82;28145;-66
2023/10/13 10:12:52;;;;;;;20.30;7.90;;;;;;;14.91;83.79;100345.05;1747276;82;25450;-55
2023/10/13 10:15:49;;;;;;;20.97;7.97;;;;;;;15.34;85.20;100346.22;1747376;82;25548;-56
2023/10/13 10:18:25;;;;;;;20.55;8.80;;;;;;;15.69;84.77;100350.08;1743882;82;25963;-58
2023/10/13 10:21:11;;;;;;;92.85;67.22;;;;;;;16.03;83.46;100349.97;1747392;81;25459;-56
2023/10/13 10:23:39;;;;;;;46.80;34.65;;;;;;;16.15;80.74;100347.20;1748371;81;27788;-57
2023/10/13 10:26:20;;;;;;;20.02;7.75;;;;;;;16.19;80.12;100345.94;1752473;81;25740;-58
2023/10/13 10:28:48;;;;;;;16.65;7.55;;;;;;;16.23;79.16;100339.45;1752304;81;25551;-58
2023/10/13 10:31:17;;;;;;;13.85;7.47;;;;;;;16.21;78.73;100332.19;1752264;81;25559;-58
2023/10/13 10:33:50;;;;;;;18.27;7.20;;;;;;;16.22;77.94;100338.43;1752286;81;25371;-59
2023/10/13 10:36:19;;;;;;;15.48;6.97;;;;;;;16.14;77.79;100326.53;1751891;81;27668;-57
2023/10/13 10:39:04;;;;;;;19.20;7.72;;;;;;;16.15;78.39;100330.05;1722599;81;25632;-68
2023/10/13 10:44:16;;;;;;;16.45;7.67;;;;;;;16.22;77.62;100328.87;1752260;81;25500;-67
2023/10/13 10:46:57;;;;;;;20.37;7.35;;;;;;;16.15;77.33;100320.50;1752343;81;25565;-67
2023/10/13 10:49:29;;;;;;;15.63;7.10;;;;;;;16.12;78.13;100314.36;1752262;81;28348;-66
2023/10/13 10:52:05;;;;;;;16.77;7.12;;;;;;;16.21;78.58;100308.20;1720314;81;25649;-64
2023/10/13 10:54:33;;;;;;;21.27;8.08;;;;;;;16.27;78.00;100310.11;1752264;81;25552;-65
2023/10/13 10:57:11;;;;;;;15.55;7.50;;;;;;;16.31;77.62;100301.44;1752168;81;26290;-67
2023/10/13 10:59:40;;;;;;;15.08;7.78;;;;;;;16.41;77.83;100297.66;1752340;81;25415;-65
2023/10/13 11:02:09;;;;;;;16.37;7.58;;;;;;;16.50;77.95;100288.50;1752209;81;27317;-65
2023/10/13 11:04:53;;;;;;;18.05;9.00;;;;;;;16.64;77.95;100286.16;1752158;81;25360;-66
2023/10/13 11:07:27;;;;;;;14.03;7.95;;;;;;;16.80;77.44;100282.08;1752264;81;25526;-65
2023/10/13 11:10:05;;;;;;;15.38;7.42;;;;;;;16.76;76.19;100265.60;1752260;81;25618;-66
2023/10/13 11:15:33;;;;;;;14.55;7.83;;;;;;;16.83;76.22;100268.30;1752220;81;27448;-66
2023/10/13 11:17:56;;;;;;;16.12;7.90;;;;;;;16.78;75.85;100274.81;1726886;81;25496;-65
2023/10/13 11:20:33;;;;;;;15.80;9.10;;;;;;;16.74;75.94;100273.94;1752260;81;25386;-66
2023/10/13 11:22:56;;;;;;;18.45;8.40;;;;;;;16.72;75.99;100268.83;1751154;81;26184;-65
2023/10/13 11:25:34;;;;;;;15.45;8.45;;;;;;;16.67;75.87;100262.25;1755689;81;25516;-65
2023/10/13 11:28:27;;;;;;;18.87;7.75;;;;;;;16.76;76.99;100264.23;1755885;81;27200;-67
2023/10/13 11:30:50;;;;;;;15.90;8.38;;;;;;;16.94;76.95;100252.98;1754469;81;25896;-65
2023/10/13 11:33:23;;;;;;;16.30;7.83;;;;;;;17.04;76.27;100245.62;1756441;81;25481;-65
2023/10/13 11:38:28;;;;;;;18.37;8.38;;;;;;;17.23;76.60;100243.55;1723824;81;25417;-65
2023/10/13 11:48:43;;;;;;;19.62;11.95;;;;;;;17.74;76.74;100227.64;1756506;81;25497;-68
2023/10/13 11:51:32;;;;;;;25.10;15.43;;;;;;;18.26;77.60;100219.52;1756629;81;25403;-68
2023/10/13 11:53:57;;;;;;;18.30;9.75;;;;;;;18.66;75.63;100216.91;1756357;81;27370;-69
2023/10/13 11:56:24;;;;;;;23.77;9.68;;;;;;;18.88;75.08;100214.53;1756489;81;25374;-67
2023/10/13 11:58:53;;;;;;;29.95;17.23;;;;;;;19.19;74.05;100221.69;1756803;81;25438;-67
2023/10/13 12:01:20;;;;;;;11.65;6.35;;;;;;;19.67;72.96;100216.27;1756537;81;25798;-67
2023/10/13 12:11:54;;;;;;;17.62;7.28;;;;;;;20.92;68.75;100211.89;1756665;81;25498;-67
2023/10/13 12:14:31;;;;;;;15.30;7.63;;;;;;;21.15;69.41;100202.83;1756668;81;25988;-71
2023/10/13 12:17:10;;;;;;;14.98;7.17;;;;;;;21.36;67.29;100201.38;1756830;81;25393;-67
2023/10/13 12:19:34;;;;;;;12.93;6.65;;;;;;;21.47;66.16;100205.02;1755322;81;28089;-70
2023/10/13 12:22:07;;;;;;;14.13;7.90;;;;;;;21.49;64.86;100195.78;1756600;81;25365;-72
2023/10/13 12:27:19;;;;;;;;;;;;;;;21.65;66.19;100209.20;1770728;81;25671;-68
2023/10/13 12:29:53;;;;;;;13.53;7.30;;;;;;;21.88;65.08;100198.47;1768185;81;25455;-71
2023/10/13 12:32:25;;;;;;;16.48;7.92;;;;;;;21.93;64.38;100186.52;1768073;81;27315;-68
2023/10/13 12:49:04;;;;;;;12.70;6.22;;;;;;;22.15;63.87;100154.88;1768003;81;25399;-73
2023/10/13 12:54:05;;;;;;;19.80;8.53;;;;;;;22.34;62.72;100144.91;1768097;81;25776;-67
2023/10/13 12:56:32;;;;;;;22.85;16.40;;;;;;;22.31;62.00;100135.27;1767864;81;25614;-67
2023/10/13 12:59:00;;;;;;;12.60;7.23;;;;;;;22.16;62.42;100130.30;1768353;81;27851;-66
2023/10/13 13:01:32;;;;;;;12.70;6.97;;;;;;;22.10;62.43;100127.72;1767900;81;25377;-63
2023/10/13 13:03:57;;;;;;;16.00;7.70;;;;;;;21.96;62.51;100138.94;1767219;81;25643;-66
2023/10/13 13:06:29;;;;;;;21.80;7.62;;;;;;;21.89;62.98;100132.02;1767992;81;25861;-65
2023/10/13 13:09:04;;;;;;;13.93;7.65;;;;;;;21.79;62.61;100140.47;1768132;81;25389;-65
2023/10/13 13:11:29;;;;;;;13.10;7.80;;;;;;;21.61;62.80;100134.89;1767031;81;27378;-66
2023/10/13 13:13:56;;;;;;;19.17;8.07;;;;;;;21.43;62.89;100127.91;1768162;81;25615;-66
2023/10/13 13:16:25;;;;;;;14.95;7.37;;;;;;;21.28;63.21;100123.52;1767996;81;25384;-67
2023/10/13 13:18:51;;;;;;;15.72;7.85;;;;;;;21.14;63.46;100124.83;1768002;81;25797;-67
2023/10/13 13:21:23;;;;;;;17.75;7.08;;;;;;;20.97;63.38;100138.08;1768109;81;25655;-68
2023/10/13 13:23:54;;;;;;;15.28;7.33;;;;;;;20.76;63.82;100131.87;1767883;81;27884;-65
2023/10/13 13:26:23;;;;;;;10.32;6.33;;;;;;;20.73;64.80;100131.26;1767793;81;25509;-72
2023/10/13 13:28:51;;;;;;;11.70;7.60;;;;;;;20.79;65.07;100132.48;1768049;81;25546;-67
2023/10/13 13:31:29;;;;;;;18.95;7.30;;;;;;;20.70;64.84;100123.20;1768119;81;25614;-64
2023/10/13 13:33:58;;;;;;;14.87;7.90;;;;;;;20.63;65.47;100128.63;1768198;81;25521;-73
2023/10/13 13:36:24;;;;;;;14.30;7.92;;;;;;;20.58;65.33;100128.95;1768057;81;27925;-73
2023/10/13 13:38:51;;;;;;;20.62;8.35;;;;;;;20.49;65.19;100123.00;1767992;81;25692;-72
2023/10/13 13:41:19;;;;;;;14.40;7.42;;;;;;;20.36;65.58;100109.36;1768067;81;25540;-67
2023/10/13 13:43:54;;;;;;;15.23;10.20;;;;;;;20.22;65.83;100102.57;1768147;81;26261;-75
2023/10/13 13:46:32;;;;;;;17.10;7.30;;;;;;;20.11;66.04;100105.83;1768177;81;25376;-76
2023/10/13 13:49:00;;;;;;;16.42;7.78;;;;;;;19.93;66.43;100102.89;1767636;81;27924;-67
2023/10/13 13:51:30;;;;;;;;;;;;;;;19.80;66.76;100095.50;1770640;81;25531;-67
2023/10/13 13:53:59;;;;;;;18.27;9.43;;;;;;;19.72;67.27;100089.73;1768104;81;25388;-68
2023/10/13 13:56:28;;;;;;;17.62;8.55;;;;;;;19.54;67.30;100087.55;1768188;81;25709;-68
2023/10/13 13:58:56;;;;;;;27.35;17.45;;;;;;;19.46;67.67;100084.55;1768316;81;25381;-68
2023/10/13 14:01:25;;;;;;;17.62;12.68;;;;;;;19.37;68.20;100079.92;1768114;81;27167;-71
2023/10/13 14:03:56;;;;;;;14.93;7.73;;;;;;;19.27;68.24;100083.32;1768216;81;25444;-68
2023/10/13 14:06:26;;;;;;;15.35;7.70;;;;;;;19.19;68.79;100081.09;1767277;81;25420;-67
2023/10/13 14:08:59;;;;;;;14.80;7.97;;;;;;;19.14;69.01;100078.08;1768131;81;25649;-66
2023/10/13 14:14:12;;;;;;;16.52;9.15;;;;;;;18.93;69.91;100059.39;1768034;81;28564;-66
2023/10/13 14:16:46;;;;;;;15.65;8.10;;;;;;;18.78;70.18;100053.48;1767941;81;25502;-67
2023/10/13 14:19:27;;;;;;;18.15;8.20;;;;;;;18.70;70.69;100044.98;1768080;81;25532;-69
2023/10/13 14:21:59;;;;;;;16.45;7.60;;;;;;;18.60;70.81;100044.44;1768011;81;26532;-68
2023/10/13 14:24:27;;;;;;;11.75;7.83;;;;;;;18.56;71.20;100044.16;1768045;81;25527;-68
2023/10/13 14:27:07;;;;;;;17.45;8.30;;;;;;;18.48;71.30;100039.96;1768215;81;27643;-65
2023/10/13 14:29:28;;;;;;;17.82;8.43;;;;;;;18.44;71.97;100043.82;1766464;81;25631;-67
2023/10/13 14:31:59;;;;;;;14.35;8.08;;;;;;;18.35;72.01;100047.38;1768419;81;25529;-71
2023/10/13 14:34:27;;;;;;;13.10;7.75;;;;;;;18.32;72.24;100038.53;1768099;81;25681;-70
2023/10/13 14:36:54;;;;;;;17.50;9.13;;;;;;;18.25;72.93;100034.55;1786407;79;25420;-69
2023/10/13 14:39:29;;;;;;;15.88;8.68;;;;;;;18.20;72.99;100030.75;1768615;79;27354;-70
2023/10/13 14:41:52;;;;;;;18.45;9.85;;;;;;;18.14;73.22;100028.09;1799381;79;25623;-68
2023/10/13 14:44:19;;;;;;;20.92;9.13;;;;;;;18.10;73.74;100032.73;1799767;79;25533;-68
2023/10/13 14:46:45;;;;;;;20.08;8.98;;;;;;;18.03;74.15;100030.67;1799701;79;25658;-70
2023/10/13 14:49:18;;;;;;;15.55;8.48;;;;;;;17.98;74.50;100029.61;1799787;79;25416;-68
2023/10/13 14:51:42;;;;;;;18.27;9.10;;;;;;;17.94;74.83;100028.73;1799548;79;27345;-67
2023/10/13 14:54:11;;;;;;;19.92;8.83;;;;;;;17.90;74.80;100029.27;1799624;79;25694;-68
2023/10/13 14:56:39;;;;;;;15.88;9.28;;;;;;;17.86;75.27;100033.31;1799760;79;25520;-68